Wigton, United Kingdom

8:46 AM BST on May 30, 2015 (GMT +0100)
IENGLAND115 | | Change Station
CLOSE
Current Station
Personal Weather Station
Location: Drumburgh, England
Elevation: 21 ft
Nearby Weather Stations

Elev 21 ft 54.93 °N, 3.16 °W | Updated 12 hours ago

Partly Cloudy
Partly Cloudy
49 °F
Feels Like 49 °F
N
11
Wind Variable Wind from West
Gusts 15 mph

Today
High -- | Low -- °F
--% Chance of Precip.
Yesterday
High -- | Low -- °F
Precip. -- in
4:44 AM 9:36 PM
Waxing Gibbous, 89% visible
Pressure 29.77 in
Visibility 6.2 miles
Clouds Few 2500 ft
Dew Point 39 °F
Humidity 66%
Rainfall in
Snow Depth Not available.
UV 3 out of 12
Pollen Not available.
Air Quality Not available.
Flu Activity Not available.
METAR EGNT 300720Z 28015KT 9999 FEW025 09/04 Q1008

More Conditions Fewer Conditions

Pressure 29.77 in
Visibility 6.2 miles
Clouds Few 2500 ft
Dew Point 39 °F
Humidity 66%
Rainfall in
Snow Depth Not available.
UV 3 out of 12
Pollen Not available.
Air Quality Not available.
Flu Activity Not available.
METAR EGNT 300720Z 28015KT 9999 FEW025 09/04 Q1008

More Conditions Fewer Conditions

10-Day Weather Forecast

Almanac

Astronomy

May. 30, 2015 Rise Set
Actual Time
Civil Twilight
Nautical Twilight
Astronomical Twilight
Moon
Length of Visible Light
Length of Day
Tomorrow will be .
, % of the Moon is Illuminated

Today's Extremes

Country Highs Country Lows

Community

WunderPhotos

Upload Photos

1,825,470 photos uploaded!

WunderBlogs® & News

Nearby

Air Quality

  Air Quality AQ Index Pollutant
Not available.

Snow Depth

Station Depth Elevation

Earthquake Activity

City Distance Mag. Time & Date
Minimum magnitude displayed is 2.5.

Coastal Water Temperatures

Place Temperature

Stations

Nearby Weather Stations

Station Location Temp. Windchill Dew Point Humidity Wind Precip. Elev Updated Type